Ozark, AR

12:59 AM CDT on July 07, 2015 (GMT -0500)
Wren Loop | | Change Station
CLOSE
Current Station
Personal Weather Station
Location: Ozark, AR
Elevation: 512 ft
Nearby Weather Stations

Elev 512 ft 35.50 °N, 93.94 °W | Updated 29 seconds ago

Clear
Clear
75.0 °F
Feels Like 73 °F
N
0.0
Wind Variable Wind from West
Gusts 0.0 mph

Today
High -- | Low -- °F
--% Chance of Precip.
Yesterday
High -- | Low -- °F
Precip. -- in
6:06 AM 8:33 PM
Waning Gibbous, 68% visible
Pressure 29.94 in
Visibility 10.0 miles
Clouds Mostly Cloudy 7000 ft
Heat Index 73 °F
Dew Point 74 °F
Humidity 98%
Rainfall 0.00 in
Snow Depth Not available.
UV 0.0 out of 12
Pollen 3.70 out of 12
Air Quality Not available.
Flu Activity Not available.
METAR KFSM 070553Z AUTO 00000KT 10SM BKN070 27/21 A2996 RMK AO2 SLP138 T02670211 10300 20261 403110222 50001

More Conditions Fewer Conditions

Pressure 29.94 in
Visibility 10.0 miles
Clouds Mostly Cloudy 7000 ft
Heat Index 73 °F
Dew Point 74 °F
Humidity 98%
Rainfall 0.00 in
Snow Depth Not available.
UV 0.0 out of 12
Pollen 3.70 out of 12
Air Quality Not available.
Flu Activity Not available.
METAR KFSM 070553Z AUTO 00000KT 10SM BKN070 27/21 A2996 RMK AO2 SLP138 T02670211 10300 20261 403110222 50001

More Conditions Fewer Conditions

Nowcast | as of 11:32 PM CDT on July 6, 2015

At 11:30 PM...radars continued to detect widespread showers and isolated thunderstorms along and north of Interstate 44. Movement was to the southeast at 20 mph. Brief gusty winds and periods of moderate to heavy rain were occurring along and north of Interstate 44. Through 1 am...widespread showers and isolated thunderstorms will continue to slowly spread southward...reaching a line from Jay to Okemah. Moderate to heavy rain will impact travel along Interstate 44 through the early morning hours...with rain continuing to gradually spread southeastward through the early morning hours.

×

10-Day Weather Forecast

×

Almanac

Astronomy

Jul. 07, 2015 Rise Set
Actual Time
Civil Twilight
Nautical Twilight
Astronomical Twilight
Moon
Length of Visible Light
Length of Day
Tomorrow will be .
, % of the Moon is Illuminated

Today's Extremes

State Highs State Lows

Community

WunderPhotos

Upload Photos

1,835,733 photos uploaded!

WunderBlogs® & News

Nearby

Air Quality

  Air Quality AQ Index Pollutant
Not available.

Snow Depth

Station Depth Elevation

Earthquake Activity

City Distance Mag. Time & Date
Minimum magnitude displayed is 2.5.

Coastal Water Temperatures

Place Temperature

Stations

Nearby Weather Stations

Station Location Temp. Windchill Dew Point Humidity Wind Precip. Elev Updated Type